createdAt,value
2018-09-22T00:00:15.113Z,53.49
2018-09-22T00:01:15.581Z,53.54
2018-09-22T00:02:16.053Z,53.54
2018-09-22T00:03:16.523Z,53.57
2018-09-22T00:04:16.993Z,53.58
2018-09-22T00:05:17.464Z,53.56
2018-09-22T00:06:17.940Z,53.54
2018-09-22T00:07:18.406Z,53.48
2018-09-22T00:08:18.877Z,53.44
2018-09-22T00:09:19.351Z,53.43
2018-09-22T00:10:19.818Z,53.38
2018-09-22T00:11:20.289Z,53.39
2018-09-22T00:12:20.766Z,53.38
2018-09-22T00:13:21.229Z,53.37
2018-09-22T00:14:21.700Z,53.39
2018-09-22T00:15:22.171Z,53.35
2018-09-22T00:16:22.647Z,53.33
2018-09-22T00:17:23.115Z,53.34
2018-09-22T00:18:23.585Z,53.35
2018-09-22T00:19:24.057Z,53.42
2018-09-22T00:20:24.530Z,53.51
2018-09-22T00:21:25.001Z,53.60
2018-09-22T00:22:25.471Z,53.68
2018-09-22T00:23:25.946Z,53.78
2018-09-22T00:24:26.419Z,53.87
2018-09-22T00:25:26.889Z,53.95
2018-09-22T00:26:27.362Z,54.02
2018-09-22T00:27:27.838Z,54.09
2018-09-22T00:28:28.309Z,54.12
2018-09-22T00:29:28.782Z,54.21
2018-09-22T00:30:29.259Z,54.26
2018-09-22T00:31:29.727Z,54.27
2018-09-22T00:32:30.204Z,54.27
2018-09-22T00:33:30.674Z,54.26
2018-09-22T00:34:31.147Z,54.20
2018-09-22T00:35:31.624Z,54.21
2018-09-22T00:36:32.095Z,54.22
2018-09-22T00:37:32.569Z,54.22
2018-09-22T00:38:33.044Z,54.25
2018-09-22T00:39:33.516Z,54.27
2018-09-22T00:40:33.993Z,54.26
2018-09-22T00:41:34.466Z,54.27
2018-09-22T00:42:34.944Z,54.29
2018-09-22T00:43:35.414Z,54.31
2018-09-22T00:44:35.889Z,54.39
2018-09-22T00:45:36.361Z,54.46
2018-09-22T00:46:36.847Z,54.52
2018-09-22T00:47:37.515Z,54.45
2018-09-22T00:48:37.787Z,54.46
2018-09-22T00:49:38.262Z,54.50
2018-09-22T00:50:38.731Z,54.57
2018-09-22T00:51:39.215Z,54.62
2018-09-22T00:52:39.679Z,54.65
2018-09-22T00:53:40.169Z,54.65
2018-09-22T00:54:40.626Z,54.71
2018-09-22T00:55:41.098Z,54.74
2018-09-22T00:56:41.570Z,54.85
2018-09-22T00:57:42.041Z,54.86
2018-09-22T00:58:42.515Z,54.83
2018-09-22T00:59:42.988Z,54.77
2018-09-22T01:00:43.462Z,54.70
2018-09-22T01:01:43.933Z,54.68
2018-09-22T01:02:44.404Z,54.72
2018-09-22T01:03:44.875Z,54.69
2018-09-22T01:04:45.347Z,54.71
2018-09-22T01:05:45.869Z,54.72
2018-09-22T01:06:46.291Z,54.73
2018-09-22T01:07:46.761Z,54.77
2018-09-22T01:08:47.233Z,54.80
2018-09-22T01:09:47.704Z,54.80
2018-09-22T01:10:48.174Z,54.77
2018-09-22T01:11:48.648Z,54.68
2018-09-22T01:12:49.117Z,54.61
2018-09-22T01:13:49.589Z,54.59
2018-09-22T01:14:50.059Z,54.58
2018-09-22T01:15:50.578Z,54.61
2018-09-22T01:16:51.000Z,54.58
2018-09-22T01:17:51.469Z,54.53
2018-09-22T01:18:51.940Z,54.44
2018-09-22T01:19:52.413Z,54.36
2018-09-22T01:20:52.884Z,54.33
2018-09-22T01:21:53.352Z,54.26
2018-09-22T01:22:53.825Z,54.16
2018-09-22T01:23:54.295Z,54.06
2018-09-22T01:24:54.768Z,53.98
2018-09-22T01:25:55.236Z,53.86
2018-09-22T01:26:55.708Z,53.79
2018-09-22T01:27:56.181Z,53.78
2018-09-22T01:28:56.652Z,53.70
2018-09-22T01:29:57.124Z,53.73
2018-09-22T01:30:57.598Z,53.79
2018-09-22T01:31:58.069Z,53.84
2018-09-22T01:32:58.540Z,53.86
2018-09-22T01:33:59.015Z,53.86
2018-09-22T01:34:59.485Z,53.84
2018-09-22T01:36:00.007Z,53.87
2018-09-22T01:37:00.435Z,53.81
2018-09-22T01:38:00.904Z,53.77
2018-09-22T01:39:01.377Z,53.70
2018-09-22T01:40:01.853Z,53.62
2018-09-22T01:41:02.325Z,53.53
2018-09-22T01:42:03.000Z,53.41
2018-09-22T01:43:03.274Z,53.30
2018-09-22T01:44:03.747Z,53.22
2018-09-22T01:45:04.220Z,53.12
2018-09-22T01:46:04.693Z,53.03
2018-09-22T01:47:05.173Z,52.96
2018-09-22T01:48:05.642Z,52.96
2018-09-22T01:49:06.116Z,52.96
2018-09-22T01:50:06.592Z,52.96
2018-09-22T01:51:07.065Z,52.95
2018-09-22T01:52:07.539Z,52.95
2018-09-22T01:53:08.013Z,52.97
2018-09-22T01:54:08.487Z,53.05
2018-09-22T01:55:08.963Z,53.10
2018-09-22T01:56:09.438Z,53.12
2018-09-22T01:57:09.909Z,53.28
2018-09-22T01:58:10.382Z,53.47
2018-09-22T01:59:10.857Z,53.58
2018-09-22T02:00:11.330Z,53.62
2018-09-22T02:01:11.803Z,53.64
2018-09-22T02:02:12.276Z,53.76
2018-09-22T02:03:12.748Z,53.97
2018-09-22T02:04:13.223Z,54.08
2018-09-22T02:05:13.695Z,54.15
2018-09-22T02:06:14.169Z,54.18
2018-09-22T02:07:14.644Z,54.18
2018-09-22T02:08:15.111Z,54.16
2018-09-22T02:09:15.587Z,54.12
2018-09-22T02:10:16.053Z,54.08
2018-09-22T02:11:16.525Z,54.06
2018-09-22T02:12:16.996Z,53.97
2018-09-22T02:13:17.469Z,53.95
2018-09-22T02:14:17.941Z,53.99
2018-09-22T02:15:18.411Z,54.03
2018-09-22T02:16:18.882Z,54.06
2018-09-22T02:17:19.352Z,54.11
2018-09-22T02:18:19.822Z,54.14
2018-09-22T02:19:20.293Z,54.15
2018-09-22T02:20:20.763Z,54.16
2018-09-22T02:21:21.236Z,54.16
2018-09-22T02:22:21.704Z,54.14
2018-09-22T02:23:22.175Z,54.15
2018-09-22T02:24:22.645Z,54.12
2018-09-22T02:25:23.117Z,54.06
2018-09-22T02:26:23.585Z,54.01
2018-09-22T02:27:24.057Z,53.92
2018-09-22T02:28:24.525Z,53.84
2018-09-22T02:29:24.998Z,53.75
2018-09-22T02:30:25.466Z,53.65
2018-09-22T02:31:25.938Z,53.56
2018-09-22T02:32:26.408Z,53.49
2018-09-22T02:33:26.880Z,53.42
2018-09-22T02:34:27.350Z,53.33
2018-09-22T02:35:27.822Z,53.30
2018-09-22T02:36:28.293Z,53.26
2018-09-22T02:37:28.763Z,53.25
2018-09-22T02:38:29.232Z,53.23
2018-09-22T02:39:29.705Z,53.22
2018-09-22T02:40:30.175Z,53.18
2018-09-22T02:41:30.652Z,53.18
2018-09-22T02:42:31.121Z,53.18
2018-09-22T02:43:31.595Z,53.16
2018-09-22T02:44:32.065Z,53.10
2018-09-22T02:45:32.542Z,53.11
2018-09-22T02:46:33.008Z,53.10
2018-09-22T02:47:33.483Z,53.04
2018-09-22T02:48:33.959Z,53.07
2018-09-22T02:49:34.431Z,53.08
2018-09-22T02:50:34.900Z,53.06
2018-09-22T02:51:35.374Z,52.99
2018-09-22T02:52:35.848Z,52.94
2018-09-22T02:53:36.321Z,52.90
2018-09-22T02:54:36.796Z,52.85
2018-09-22T02:55:37.268Z,52.83
2018-09-22T02:56:37.744Z,52.82
2018-09-22T02:57:38.221Z,52.79
2018-09-22T02:58:38.763Z,52.79
2018-09-22T02:59:39.171Z,52.80
2018-09-22T03:00:39.773Z,52.83
2018-09-22T03:01:40.112Z,52.85
2018-09-22T03:02:40.588Z,52.86
2018-09-22T03:03:41.063Z,52.94
2018-09-22T03:04:41.534Z,52.99
2018-09-22T03:05:42.007Z,53.04
2018-09-22T03:06:42.527Z,53.15
2018-09-22T03:07:42.952Z,53.25
2018-09-22T03:08:43.460Z,53.33
2018-09-22T03:09:43.900Z,53.41
2018-09-22T03:10:44.373Z,53.48
2018-09-22T03:11:44.846Z,53.53
2018-09-22T03:12:45.317Z,53.55
2018-09-22T03:13:45.791Z,53.63
2018-09-22T03:14:46.264Z,53.65
2018-09-22T03:15:46.735Z,53.67
2018-09-22T03:16:47.208Z,53.69
2018-09-22T03:17:47.679Z,53.69
2018-09-22T03:18:48.151Z,53.67
2018-09-22T03:19:48.623Z,53.65
2018-09-22T03:20:49.093Z,53.64
2018-09-22T03:21:49.564Z,53.64
2018-09-22T03:22:50.036Z,53.66
2018-09-22T03:23:50.507Z,53.74
2018-09-22T03:24:50.983Z,53.80
2018-09-22T03:25:51.447Z,53.86
2018-09-22T03:26:51.917Z,53.92
2018-09-22T03:27:52.392Z,53.97
2018-09-22T03:28:52.863Z,53.98
2018-09-22T03:29:53.332Z,54.04
2018-09-22T03:30:53.800Z,54.10
2018-09-22T03:31:54.269Z,54.23
2018-09-22T03:32:54.741Z,54.46
2018-09-22T03:33:55.210Z,54.65
2018-09-22T03:34:55.680Z,54.74
2018-09-22T03:35:56.149Z,54.87
2018-09-22T03:36:56.620Z,54.91
2018-09-22T03:37:57.088Z,55.04
2018-09-22T03:38:57.562Z,55.10
2018-09-22T03:39:58.030Z,55.12
2018-09-22T03:40:58.502Z,55.13
2018-09-22T03:41:58.971Z,55.13
2018-09-22T03:42:59.440Z,55.09
2018-09-22T03:43:59.910Z,55.12
2018-09-22T03:45:00.381Z,55.09
2018-09-22T03:46:00.853Z,55.01
2018-09-22T03:47:01.322Z,54.93
2018-09-22T03:48:01.798Z,54.82
2018-09-22T03:49:02.263Z,54.75
2018-09-22T03:50:02.736Z,54.69
2018-09-22T03:51:03.205Z,54.65
2018-09-22T03:52:03.679Z,54.70
2018-09-22T03:53:04.149Z,54.61
2018-09-22T03:54:04.624Z,54.63
2018-09-22T03:55:05.092Z,54.65
2018-09-22T03:56:05.565Z,54.65
2018-09-22T03:57:06.037Z,54.57
2018-09-22T03:58:06.508Z,54.59
2018-09-22T03:59:06.980Z,54.63
2018-09-22T04:00:07.454Z,54.63
2018-09-22T04:01:07.927Z,54.68
2018-09-22T04:02:08.600Z,54.67
2018-09-22T04:03:08.873Z,54.66
2018-09-22T04:04:09.343Z,54.72
2018-09-22T04:05:09.821Z,54.79
2018-09-22T04:06:10.290Z,54.81
2018-09-22T04:07:10.765Z,54.83
2018-09-22T04:08:11.238Z,54.90
2018-09-22T04:09:11.711Z,55.00
2018-09-22T04:10:12.185Z,55.06
2018-09-22T04:11:12.657Z,55.13
2018-09-22T04:12:13.131Z,55.23
2018-09-22T04:13:13.606Z,55.45
2018-09-22T04:14:14.080Z,55.55
2018-09-22T04:15:14.551Z,55.66
2018-09-22T04:16:15.026Z,55.75
2018-09-22T04:17:15.508Z,55.88
2018-09-22T04:18:15.974Z,55.99
2018-09-22T04:19:16.446Z,56.06
2018-09-22T04:20:16.919Z,56.11
2018-09-22T04:21:17.396Z,56.23
2018-09-22T04:22:17.865Z,56.30
2018-09-22T04:23:18.348Z,56.33
2018-09-22T04:24:18.812Z,56.37
2018-09-22T04:25:19.291Z,56.51
2018-09-22T04:26:19.755Z,56.61
2018-09-22T04:27:20.226Z,56.74
2018-09-22T04:28:20.700Z,56.79
2018-09-22T04:29:21.170Z,56.94
2018-09-22T04:30:21.645Z,57.05
2018-09-22T04:31:22.115Z,57.17
2018-09-22T04:32:22.587Z,57.28
2018-09-22T04:33:23.084Z,57.37
2018-09-22T04:34:23.527Z,57.40
2018-09-22T04:35:23.994Z,57.43
2018-09-22T04:36:24.467Z,57.41
2018-09-22T04:37:24.938Z,57.41
2018-09-22T04:38:25.408Z,57.44
2018-09-22T04:39:25.879Z,57.33
2018-09-22T04:40:26.349Z,57.19
2018-09-22T04:41:26.817Z,57.09
2018-09-22T04:42:27.287Z,57.03
2018-09-22T04:43:27.760Z,56.93
2018-09-22T04:44:28.234Z,56.73
2018-09-22T04:45:28.699Z,56.60
2018-09-22T04:46:29.180Z,56.49
2018-09-22T04:47:29.640Z,56.35
2018-09-22T04:48:30.108Z,56.21
2018-09-22T04:49:30.578Z,56.10
2018-09-22T04:50:31.049Z,55.97
2018-09-22T04:51:31.519Z,55.88
2018-09-22T04:52:31.990Z,55.76
2018-09-22T04:53:32.460Z,55.72
2018-09-22T04:54:32.932Z,55.66
2018-09-22T04:55:33.402Z,55.58
2018-09-22T04:56:33.871Z,55.57
2018-09-22T04:57:34.343Z,55.50
2018-09-22T04:58:34.815Z,55.51
2018-09-22T04:59:35.284Z,55.50
2018-09-22T05:00:35.757Z,55.41
2018-09-22T05:01:36.228Z,55.38
2018-09-22T05:02:36.702Z,55.39
2018-09-22T05:03:37.169Z,55.45
2018-09-22T05:04:37.641Z,55.42
2018-09-22T05:05:38.113Z,55.38
2018-09-22T05:06:38.586Z,55.37
2018-09-22T05:07:39.056Z,55.35
2018-09-22T05:08:39.532Z,55.34
2018-09-22T05:09:40.005Z,55.33
2018-09-22T05:10:40.474Z,55.37
2018-09-22T05:11:40.953Z,55.47
2018-09-22T05:12:41.419Z,55.60
2018-09-22T05:13:41.893Z,55.72
2018-09-22T05:14:42.369Z,55.79
2018-09-22T05:15:42.838Z,55.90
2018-09-22T05:16:43.310Z,56.04
2018-09-22T05:17:43.784Z,56.04
2018-09-22T05:18:44.260Z,55.96
2018-09-22T05:19:44.732Z,55.91
2018-09-22T05:20:45.205Z,55.96
2018-09-22T05:21:45.676Z,55.95
2018-09-22T05:22:46.149Z,55.89
2018-09-22T05:23:46.623Z,55.83
2018-09-22T05:24:47.108Z,55.79
2018-09-22T05:25:47.571Z,55.77
2018-09-22T05:26:48.043Z,55.71
2018-09-22T05:27:48.518Z,55.60
2018-09-22T05:28:48.991Z,55.57
2018-09-22T05:29:49.465Z,55.51
2018-09-22T05:30:49.938Z,55.47
2018-09-22T05:31:50.410Z,55.46
2018-09-22T05:32:50.883Z,55.50
2018-09-22T05:33:51.358Z,55.48
2018-09-22T05:34:51.834Z,55.49
2018-09-22T05:35:52.303Z,55.49
2018-09-22T05:36:52.782Z,55.50
2018-09-22T05:37:53.251Z,55.51
2018-09-22T05:38:53.723Z,55.52
2018-09-22T05:39:54.196Z,55.52
2018-09-22T05:40:54.667Z,55.51
2018-09-22T05:41:55.140Z,55.49
2018-09-22T05:42:55.916Z,55.50
2018-09-22T05:43:56.084Z,55.52
2018-09-22T05:44:56.553Z,55.55
2018-09-22T05:45:57.028Z,55.54
2018-09-22T05:46:57.498Z,55.57
2018-09-22T05:47:57.968Z,55.59
2018-09-22T05:48:58.443Z,55.61
2018-09-22T05:49:58.911Z,55.64
2018-09-22T05:50:59.382Z,55.61
2018-09-22T05:51:59.851Z,55.57
2018-09-22T05:53:00.321Z,55.53
2018-09-22T05:54:00.790Z,55.49
2018-09-22T05:55:01.262Z,55.47
2018-09-22T05:56:01.734Z,55.42
2018-09-22T05:57:02.209Z,55.31
2018-09-22T05:58:02.756Z,55.21
2018-09-22T05:59:03.141Z,55.06
2018-09-22T06:00:03.612Z,54.93
2018-09-22T06:01:04.083Z,54.81
2018-09-22T06:02:04.554Z,54.67
2018-09-22T06:03:05.044Z,54.57
2018-09-22T06:04:05.493Z,54.48
2018-09-22T06:05:05.965Z,54.42
2018-09-22T06:06:06.432Z,54.32
2018-09-22T06:07:06.901Z,54.23
2018-09-22T06:08:07.372Z,54.17
2018-09-22T06:09:07.847Z,54.13
2018-09-22T06:10:08.312Z,54.07
2018-09-22T06:11:08.784Z,54.00
2018-09-22T06:12:09.255Z,53.97
2018-09-22T06:13:09.724Z,53.93
2018-09-22T06:14:10.197Z,53.93
2018-09-22T06:15:10.668Z,53.92
2018-09-22T06:16:11.140Z,53.89
2018-09-22T06:17:11.608Z,53.85
2018-09-22T06:18:12.083Z,53.81
2018-09-22T06:19:12.552Z,53.74
2018-09-22T06:20:13.025Z,53.71
2018-09-22T06:21:13.495Z,53.69
2018-09-22T06:22:13.967Z,53.65
2018-09-22T06:23:14.458Z,53.57
2018-09-22T06:24:14.913Z,53.56
2018-09-22T06:25:15.381Z,53.54
2018-09-22T06:26:15.855Z,53.55
2018-09-22T06:27:16.330Z,53.56
2018-09-22T06:28:16.803Z,53.55
2018-09-22T06:29:17.273Z,53.57
2018-09-22T06:30:17.745Z,53.51
2018-09-22T06:31:18.217Z,53.50
2018-09-22T06:32:18.690Z,53.46
2018-09-22T06:33:19.164Z,53.45
2018-09-22T06:34:19.636Z,53.43
2018-09-22T06:35:20.110Z,53.40
2018-09-22T06:36:20.584Z,53.31
2018-09-22T06:37:21.059Z,53.23
2018-09-22T06:38:21.530Z,53.16
2018-09-22T06:39:22.004Z,53.11
2018-09-22T06:40:22.487Z,53.03
2018-09-22T06:41:22.950Z,53.03
2018-09-22T06:42:23.424Z,53.03
2018-09-22T06:43:23.897Z,53.11
2018-09-22T06:44:24.370Z,53.19
2018-09-22T06:45:24.845Z,53.22
2018-09-22T06:46:25.318Z,53.27
2018-09-22T06:47:25.790Z,53.32
2018-09-22T06:48:26.263Z,53.38
2018-09-22T06:49:26.736Z,53.42
2018-09-22T06:50:27.209Z,53.49
2018-09-22T06:51:27.685Z,53.53
2018-09-22T06:52:28.155Z,53.58
2018-09-22T06:53:28.626Z,53.66
2018-09-22T06:54:29.102Z,53.71
2018-09-22T06:55:29.571Z,53.75
2018-09-22T06:56:30.042Z,53.77
2018-09-22T06:57:30.516Z,53.87
2018-09-22T06:58:30.987Z,53.94
2018-09-22T06:59:31.458Z,53.97
2018-09-22T07:00:31.928Z,54.10
2018-09-22T07:01:32.399Z,54.32
2018-09-22T07:02:32.871Z,54.49
2018-09-22T07:03:33.340Z,54.61
2018-09-22T07:04:33.814Z,54.91
2018-09-22T07:05:34.280Z,55.10
2018-09-22T07:06:34.753Z,55.25
2018-09-22T07:07:35.225Z,55.35
2018-09-22T07:08:35.692Z,55.42
2018-09-22T07:09:36.164Z,55.45
2018-09-22T07:10:36.636Z,55.50
2018-09-22T07:11:37.102Z,55.53
2018-09-22T07:12:37.569Z,55.46
2018-09-22T07:13:38.054Z,55.40
2018-09-22T07:14:38.510Z,55.35
2018-09-22T07:15:38.980Z,55.26
2018-09-22T07:16:39.450Z,55.20
2018-09-22T07:17:39.921Z,55.13
2018-09-22T07:18:40.388Z,55.05
2018-09-22T07:19:40.859Z,54.95
2018-09-22T07:20:41.328Z,54.86
2018-09-22T07:21:41.798Z,54.77
2018-09-22T07:22:42.268Z,54.66
2018-09-22T07:23:42.737Z,54.57
2018-09-22T07:24:43.207Z,54.49
2018-09-22T07:25:43.676Z,54.41
2018-09-22T07:26:44.153Z,54.38
2018-09-22T07:27:44.622Z,54.31
2018-09-22T07:28:45.090Z,54.20
2018-09-22T07:29:45.558Z,54.17
2018-09-22T07:30:46.043Z,54.11
2018-09-22T07:31:46.501Z,54.08
2018-09-22T07:32:46.971Z,53.98
2018-09-22T07:33:47.442Z,53.95
2018-09-22T07:34:47.913Z,53.90
2018-09-22T07:35:48.386Z,53.84
2018-09-22T07:36:48.858Z,53.77
2018-09-22T07:37:49.327Z,53.67
2018-09-22T07:38:49.801Z,53.62
2018-09-22T07:39:50.274Z,53.55
2018-09-22T07:40:50.744Z,53.44
2018-09-22T07:41:51.214Z,53.35
2018-09-22T07:42:51.688Z,53.26
2018-09-22T07:43:52.161Z,53.19
2018-09-22T07:44:52.632Z,53.10
2018-09-22T07:45:53.162Z,53.02
2018-09-22T07:46:53.580Z,52.99
2018-09-22T07:47:54.051Z,52.90
2018-09-22T07:48:54.574Z,52.84
2018-09-22T07:49:54.997Z,52.79
2018-09-22T07:50:55.469Z,52.73
2018-09-22T07:51:55.950Z,52.70
2018-09-22T07:52:56.418Z,52.64
2018-09-22T07:53:56.890Z,52.55
2018-09-22T07:54:57.363Z,52.43
2018-09-22T07:55:57.838Z,52.33
2018-09-22T07:56:58.330Z,52.30
2018-09-22T07:57:58.787Z,52.25
2018-09-22T07:58:59.268Z,52.21
2018-09-22T07:59:59.733Z,52.23
2018-09-22T08:01:00.218Z,52.29
2018-09-22T08:02:00.681Z,52.31
2018-09-22T08:03:01.155Z,52.32
2018-09-22T08:04:01.631Z,52.38
2018-09-22T08:05:02.103Z,52.45
2018-09-22T08:06:02.576Z,52.52
2018-09-22T08:07:03.051Z,52.63
2018-09-22T08:08:03.525Z,52.75
2018-09-22T08:09:03.996Z,52.84
2018-09-22T08:10:04.468Z,52.90
2018-09-22T08:11:04.942Z,52.94
2018-09-22T08:12:05.414Z,53.01
2018-09-22T08:13:05.886Z,53.06
2018-09-22T08:14:06.361Z,53.08
2018-09-22T08:15:06.835Z,53.12
2018-09-22T08:16:07.304Z,53.24
2018-09-22T08:17:07.774Z,53.30
2018-09-22T08:18:08.255Z,53.28
2018-09-22T08:19:08.720Z,53.31
2018-09-22T08:20:09.189Z,53.40
2018-09-22T08:21:09.661Z,53.56
2018-09-22T08:22:10.132Z,53.68
2018-09-22T08:23:10.603Z,53.74
2018-09-22T08:24:11.073Z,53.80
2018-09-22T08:25:11.608Z,53.88
2018-09-22T08:26:12.015Z,53.92
2018-09-22T08:27:12.484Z,53.93
2018-09-22T08:28:12.954Z,53.96
2018-09-22T08:29:13.426Z,54.03
2018-09-22T08:30:13.893Z,54.03
2018-09-22T08:31:14.364Z,54.00
2018-09-22T08:32:14.837Z,53.88
2018-09-22T08:33:15.304Z,53.78
2018-09-22T08:34:15.773Z,53.69
2018-09-22T08:35:16.245Z,53.54
2018-09-22T08:36:16.749Z,53.41
2018-09-22T08:37:17.224Z,53.27
2018-09-22T08:38:17.654Z,53.15
2018-09-22T08:39:18.125Z,53.00
2018-09-22T08:40:18.593Z,53.01
2018-09-22T08:41:19.065Z,52.93
2018-09-22T08:42:19.539Z,52.87
2018-09-22T08:43:20.004Z,52.88
2018-09-22T08:44:20.476Z,52.96
2018-09-22T08:45:20.946Z,53.00
2018-09-22T08:46:21.417Z,53.11
2018-09-22T08:47:21.887Z,53.13
2018-09-22T08:48:22.359Z,53.11
2018-09-22T08:49:22.829Z,53.06
2018-09-22T08:50:23.301Z,53.01
2018-09-22T08:51:23.772Z,52.92
2018-09-22T08:52:24.244Z,52.84
2018-09-22T08:53:24.715Z,52.77
2018-09-22T08:54:25.186Z,52.67
2018-09-22T08:55:25.663Z,52.60
2018-09-22T08:56:26.132Z,52.50
2018-09-22T08:57:26.605Z,52.41
2018-09-22T08:58:27.075Z,52.30
2018-09-22T08:59:27.547Z,52.21
2018-09-22T09:00:28.075Z,52.13
2018-09-22T09:01:28.494Z,52.05
2018-09-22T09:02:28.965Z,51.98
2018-09-22T09:03:29.439Z,51.89
2018-09-22T09:04:29.914Z,51.83
2018-09-22T09:05:30.384Z,51.80
2018-09-22T09:06:30.858Z,51.76
2018-09-22T09:07:31.331Z,51.67
2018-09-22T09:08:31.810Z,51.58
2018-09-22T09:09:32.277Z,51.50
2018-09-22T09:10:32.752Z,51.40
2018-09-22T09:11:33.247Z,51.28
2018-09-22T09:12:33.700Z,51.22
2018-09-22T09:13:34.189Z,51.17
2018-09-22T09:14:34.649Z,51.12
2018-09-22T09:15:35.120Z,51.12
2018-09-22T09:16:35.595Z,51.17
2018-09-22T09:17:36.067Z,51.18
2018-09-22T09:18:36.540Z,51.27
2018-09-22T09:19:37.014Z,51.31
2018-09-22T09:20:37.492Z,51.38
2018-09-22T09:21:37.961Z,51.43
2018-09-22T09:22:38.437Z,51.49
2018-09-22T09:23:38.909Z,51.56
2018-09-22T09:24:39.383Z,51.62
2018-09-22T09:25:39.853Z,51.68
2018-09-22T09:26:40.326Z,51.73
2018-09-22T09:27:40.801Z,51.76
2018-09-22T09:28:41.273Z,51.80
2018-09-22T09:29:41.744Z,51.84
2018-09-22T09:30:42.215Z,51.87
2018-09-22T09:31:42.687Z,51.90
2018-09-22T09:32:43.159Z,51.91
2018-09-22T09:33:43.632Z,51.90
2018-09-22T09:34:44.103Z,51.93
2018-09-22T09:35:44.572Z,51.97
2018-09-22T09:36:45.043Z,52.04
2018-09-22T09:37:45.514Z,52.10
2018-09-22T09:38:45.984Z,52.15
2018-09-22T09:39:46.456Z,52.19
2018-09-22T09:40:46.926Z,52.22
2018-09-22T09:41:47.396Z,52.24
2018-09-22T09:42:47.866Z,52.22
2018-09-22T09:43:48.417Z,52.20
2018-09-22T09:44:48.808Z,52.18
2018-09-22T09:45:49.275Z,52.12
2018-09-22T09:46:49.746Z,52.05
2018-09-22T09:47:50.218Z,51.97
2018-09-22T09:48:50.684Z,51.87
2018-09-22T09:49:51.155Z,51.78
2018-09-22T09:50:51.624Z,51.67
2018-09-22T09:51:52.095Z,51.58
2018-09-22T09:52:52.566Z,51.50
2018-09-22T09:53:53.034Z,51.43
2018-09-22T09:54:53.561Z,51.39
2018-09-22T09:55:53.977Z,51.32
2018-09-22T09:56:54.453Z,51.28
2018-09-22T09:57:54.917Z,51.24
2018-09-22T09:58:55.387Z,51.17
2018-09-22T09:59:55.857Z,51.12
2018-09-22T10:00:56.332Z,51.08
2018-09-22T10:01:56.800Z,51.03
2018-09-22T10:02:57.270Z,50.96
2018-09-22T10:03:57.741Z,50.95
2018-09-22T10:04:58.212Z,50.93
2018-09-22T10:05:58.683Z,50.96
2018-09-22T10:06:59.154Z,50.97
2018-09-22T10:07:59.627Z,50.94
2018-09-22T10:09:00.100Z,50.90
2018-09-22T10:10:00.572Z,50.91
2018-09-22T10:11:01.046Z,50.89
2018-09-22T10:12:01.517Z,50.89
2018-09-22T10:13:01.990Z,50.91
2018-09-22T10:14:02.458Z,50.91
2018-09-22T10:15:02.934Z,50.89
2018-09-22T10:16:03.404Z,50.87
2018-09-22T10:17:03.878Z,50.85
2018-09-22T10:18:04.349Z,50.85
2018-09-22T10:19:04.824Z,50.80
2018-09-22T10:20:05.302Z,50.74
2018-09-22T10:21:05.770Z,50.66
2018-09-22T10:22:06.244Z,50.58
2018-09-22T10:23:06.716Z,50.52
2018-09-22T10:24:07.189Z,50.46
2018-09-22T10:25:07.664Z,50.40
2018-09-22T10:26:08.138Z,50.36
2018-09-22T10:27:08.612Z,50.35
2018-09-22T10:28:09.127Z,50.39
2018-09-22T10:29:09.560Z,50.43
2018-09-22T10:30:10.031Z,50.46
2018-09-22T10:31:10.504Z,50.48
2018-09-22T10:32:10.979Z,50.56
2018-09-22T10:33:11.454Z,50.62
2018-09-22T10:34:11.924Z,50.66
2018-09-22T10:35:12.399Z,50.72
2018-09-22T10:36:12.873Z,50.77
2018-09-22T10:37:13.345Z,50.79
2018-09-22T10:38:13.815Z,50.83
2018-09-22T10:39:14.289Z,50.88
2018-09-22T10:40:14.764Z,50.91
2018-09-22T10:41:15.234Z,50.92
2018-09-22T10:42:15.713Z,50.98
2018-09-22T10:43:16.181Z,50.99
2018-09-22T10:44:16.651Z,51.00
2018-09-22T10:45:17.124Z,51.00
2018-09-22T10:46:17.591Z,50.97
2018-09-22T10:47:18.065Z,50.98
2018-09-22T10:48:18.535Z,50.98
2018-09-22T10:49:19.007Z,51.05
2018-09-22T10:50:19.476Z,51.11
2018-09-22T10:51:19.950Z,51.16
2018-09-22T10:52:20.418Z,51.20
2018-09-22T10:53:20.890Z,51.21
2018-09-22T10:54:21.358Z,51.21
2018-09-22T10:55:21.832Z,51.18
2018-09-22T10:56:22.299Z,51.15
2018-09-22T10:57:22.769Z,51.12
2018-09-22T10:58:23.237Z,51.05
2018-09-22T10:59:23.708Z,50.96
2018-09-22T11:00:24.181Z,50.86
2018-09-22T11:01:24.649Z,50.75
2018-09-22T11:02:25.121Z,50.64
2018-09-22T11:03:25.600Z,50.55
2018-09-22T11:04:26.061Z,50.47
2018-09-22T11:05:26.530Z,50.41
2018-09-22T11:06:26.999Z,50.38
2018-09-22T11:07:27.470Z,50.33
2018-09-22T11:08:27.941Z,50.29
2018-09-22T11:09:28.413Z,50.24
2018-09-22T11:10:28.883Z,50.23
2018-09-22T11:11:29.355Z,50.21
2018-09-22T11:12:29.826Z,50.18
2018-09-22T11:13:30.295Z,50.15
2018-09-22T11:14:30.767Z,50.13
2018-09-22T11:15:31.240Z,50.09
2018-09-22T11:16:31.710Z,50.07
2018-09-22T11:17:32.181Z,50.03
2018-09-22T11:18:32.653Z,50.02
2018-09-22T11:19:33.126Z,49.99
2018-09-22T11:20:33.597Z,49.96
2018-09-22T11:21:34.073Z,49.93
2018-09-22T11:22:34.541Z,49.91
2018-09-22T11:23:35.014Z,49.89
2018-09-22T11:24:35.488Z,49.84
2018-09-22T11:25:35.962Z,49.82
2018-09-22T11:26:36.434Z,49.80
2018-09-22T11:27:36.906Z,49.74
2018-09-22T11:28:37.381Z,49.67
2018-09-22T11:29:37.854Z,49.60
2018-09-22T11:30:38.328Z,49.51
2018-09-22T11:31:38.805Z,49.44
2018-09-22T11:32:39.315Z,49.39
2018-09-22T11:33:39.747Z,49.34
2018-09-22T11:34:40.221Z,49.33
2018-09-22T11:35:40.695Z,49.31
2018-09-22T11:36:41.175Z,49.33
2018-09-22T11:37:41.646Z,49.39
2018-09-22T11:38:42.117Z,49.42
2018-09-22T11:39:42.590Z,49.45
2018-09-22T11:40:43.063Z,49.50
2018-09-22T11:41:43.540Z,49.56
2018-09-22T11:42:44.012Z,49.63
2018-09-22T11:43:44.484Z,49.67
2018-09-22T11:44:44.957Z,49.71
2018-09-22T11:45:45.431Z,49.76
2018-09-22T11:46:45.904Z,49.78
2018-09-22T11:47:46.379Z,49.82
2018-09-22T11:48:46.849Z,49.86
2018-09-22T11:49:47.323Z,49.89
2018-09-22T11:50:47.793Z,49.92
2018-09-22T11:51:48.267Z,49.94
2018-09-22T11:52:48.737Z,49.95
2018-09-22T11:53:49.211Z,49.93
2018-09-22T11:54:49.681Z,49.92
2018-09-22T11:55:50.155Z,49.90
2018-09-22T11:56:50.626Z,49.88
2018-09-22T11:57:51.097Z,49.85
2018-09-22T11:58:51.566Z,49.87
2018-09-22T11:59:52.040Z,49.93
2018-09-22T12:00:52.513Z,50.00
2018-09-22T12:01:53.024Z,50.07
2018-09-22T12:02:53.452Z,50.12
2018-09-22T12:03:53.922Z,50.15
2018-09-22T12:04:54.392Z,50.18
2018-09-22T12:05:54.871Z,50.20
2018-09-22T12:06:55.534Z,50.18
2018-09-22T12:07:55.803Z,50.17
2018-09-22T12:08:56.273Z,50.13
2018-09-22T12:09:56.742Z,50.06
2018-09-22T12:10:57.212Z,49.98
2018-09-22T12:11:57.683Z,49.91
2018-09-22T12:12:58.154Z,49.82
2018-09-22T12:13:58.635Z,49.73
2018-09-22T12:14:59.092Z,49.66
2018-09-22T12:15:59.564Z,49.57
2018-09-22T12:17:00.033Z,49.50
2018-09-22T12:18:00.506Z,49.46
2018-09-22T12:19:00.974Z,49.39
2018-09-22T12:20:01.446Z,49.35
2018-09-22T12:21:01.917Z,49.31
2018-09-22T12:22:02.389Z,49.26
2018-09-22T12:23:02.859Z,49.24
2018-09-22T12:24:03.330Z,49.23
2018-09-22T12:25:03.801Z,49.21
2018-09-22T12:26:04.275Z,49.18
2018-09-22T12:27:04.744Z,49.15
2018-09-22T12:28:05.216Z,49.12
2018-09-22T12:29:05.689Z,49.10
2018-09-22T12:30:06.160Z,49.08
2018-09-22T12:31:06.632Z,49.06
2018-09-22T12:32:07.105Z,49.04
2018-09-22T12:33:07.578Z,48.99
2018-09-22T12:34:08.051Z,48.96
2018-09-22T12:35:08.525Z,48.91
2018-09-22T12:36:08.996Z,48.83
2018-09-22T12:37:09.470Z,48.72
2018-09-22T12:38:09.945Z,48.62
2018-09-22T12:39:10.419Z,48.50
2018-09-22T12:40:10.890Z,48.44
2018-09-22T12:41:11.365Z,48.38
2018-09-22T12:42:11.840Z,48.34
2018-09-22T12:43:12.312Z,48.27
2018-09-22T12:44:12.789Z,48.29
2018-09-22T12:45:13.261Z,48.32
2018-09-22T12:46:13.785Z,48.39
2018-09-22T12:47:14.209Z,48.39
2018-09-22T12:48:14.686Z,48.43
2018-09-22T12:49:15.157Z,48.46
2018-09-22T12:50:15.631Z,48.50
2018-09-22T12:51:16.107Z,48.53
2018-09-22T12:52:16.577Z,48.58
2018-09-22T12:53:17.051Z,48.61
2018-09-22T12:54:17.527Z,48.64
2018-09-22T12:55:17.999Z,48.67
2018-09-22T12:56:18.472Z,48.71
2018-09-22T12:57:18.945Z,48.74
2018-09-22T12:58:19.419Z,48.76